createdAt,value
2023-02-22T00:00:27.866Z,7.67
2023-02-22T00:01:27.845Z,7.53
2023-02-22T00:02:27.857Z,7.70
2023-02-22T00:03:27.915Z,7.51
2023-02-22T00:04:27.829Z,7.53
2023-02-22T00:05:27.820Z,7.57
2023-02-22T00:06:27.820Z,7.54
2023-02-22T00:07:27.815Z,7.56
2023-02-22T00:08:27.828Z,7.48
2023-02-22T00:09:27.805Z,7.61
2023-02-22T00:10:27.847Z,7.63
2023-02-22T00:11:27.776Z,7.53
2023-02-22T00:12:27.781Z,7.70
2023-02-22T00:13:27.777Z,7.70
2023-02-22T00:14:27.762Z,7.79
2023-02-22T00:15:27.760Z,7.75
2023-02-22T00:16:27.879Z,7.76
2023-02-22T00:17:27.746Z,7.80
2023-02-22T00:18:27.740Z,7.80
2023-02-22T00:19:27.738Z,7.85
2023-02-22T00:20:27.711Z,7.79
2023-02-22T00:21:27.752Z,7.95
2023-02-22T00:22:27.730Z,7.87
2023-02-22T00:23:27.706Z,7.79
2023-02-22T00:24:27.729Z,7.66
2023-02-22T00:25:27.695Z,7.73
2023-02-22T00:26:27.688Z,7.72
2023-02-22T00:27:27.696Z,7.77
2023-02-22T00:28:27.670Z,7.80
2023-02-22T00:29:27.673Z,7.77
2023-02-22T00:30:27.706Z,7.85
2023-02-22T00:31:27.731Z,7.73
2023-02-22T00:32:27.691Z,7.69
2023-02-22T00:33:27.643Z,7.69
2023-02-22T00:34:27.634Z,7.72
2023-02-22T00:35:27.640Z,7.77
2023-02-22T00:36:27.659Z,7.56
2023-02-22T00:37:27.640Z,7.56
2023-02-22T00:38:27.606Z,7.51
2023-02-22T00:39:27.614Z,7.60
2023-02-22T00:40:27.602Z,7.72
2023-02-22T00:41:27.646Z,7.75
2023-02-22T00:42:27.596Z,7.67
2023-02-22T00:43:27.617Z,7.72
2023-02-22T00:44:27.561Z,7.72
2023-02-22T00:45:27.557Z,7.63
2023-02-22T00:46:27.561Z,7.69
2023-02-22T00:47:27.566Z,7.61
2023-02-22T00:48:27.554Z,7.50
2023-02-22T00:49:27.543Z,7.58
2023-02-22T00:50:27.540Z,7.58
2023-02-22T00:51:27.572Z,7.60
2023-02-22T00:52:27.530Z,7.54
2023-02-22T00:53:27.522Z,7.47
2023-02-22T00:54:27.525Z,7.42
2023-02-22T00:55:27.545Z,7.50
2023-02-22T00:56:27.514Z,7.36
2023-02-22T00:57:27.502Z,7.50
2023-02-22T00:58:27.481Z,7.56
2023-02-22T00:59:27.491Z,7.51
2023-02-22T01:00:27.489Z,7.56
2023-02-22T01:01:27.565Z,7.57
2023-02-22T01:02:27.564Z,7.51
2023-02-22T01:03:27.526Z,7.40
2023-02-22T01:04:27.456Z,7.50
2023-02-22T01:05:27.453Z,7.42
2023-02-22T01:06:27.445Z,7.45
2023-02-22T01:07:27.459Z,7.40
2023-02-22T01:08:27.430Z,7.54
2023-02-22T01:09:27.409Z,7.48
2023-02-22T01:10:27.446Z,7.51
2023-02-22T01:11:27.444Z,7.53
2023-02-22T01:12:27.397Z,7.54
2023-02-22T01:13:27.394Z,7.42
2023-02-22T01:14:27.390Z,7.43
2023-02-22T01:15:27.373Z,7.53
2023-02-22T01:16:27.410Z,7.48
2023-02-22T01:17:27.365Z,7.42
2023-02-22T01:18:27.396Z,7.45
2023-02-22T01:19:27.359Z,7.43
2023-02-22T01:20:27.397Z,7.43
2023-02-22T01:21:27.338Z,7.45
2023-02-22T01:22:27.335Z,7.42
2023-02-22T01:23:27.330Z,7.42
2023-02-22T01:24:27.323Z,7.40
2023-02-22T01:25:27.331Z,7.47
2023-02-22T01:26:27.343Z,7.42
2023-02-22T01:27:27.302Z,7.32
2023-02-22T01:28:27.326Z,7.36
2023-02-22T01:29:27.304Z,7.29
2023-02-22T01:30:27.351Z,7.29
2023-02-22T01:31:27.316Z,7.36
2023-02-22T01:32:27.284Z,7.23
2023-02-22T01:33:27.265Z,7.23
2023-02-22T01:34:27.295Z,7.20
2023-02-22T01:35:27.267Z,7.29
2023-02-22T01:36:27.236Z,7.33
2023-02-22T01:37:27.232Z,7.25
2023-02-22T01:38:27.233Z,7.25
2023-02-22T01:39:27.266Z,7.24
2023-02-22T01:40:27.242Z,7.31
2023-02-22T01:41:27.219Z,7.39
2023-02-22T01:42:27.220Z,7.33
2023-02-22T01:43:27.200Z,7.17
2023-02-22T01:44:27.213Z,7.15
2023-02-22T01:45:27.211Z,7.18
2023-02-22T01:46:27.291Z,7.15
2023-02-22T01:47:27.180Z,7.07
2023-02-22T01:48:27.176Z,7.17
2023-02-22T01:49:27.171Z,7.18
2023-02-22T01:50:27.162Z,7.25
2023-02-22T01:51:27.173Z,7.15
2023-02-22T01:52:27.137Z,7.25
2023-02-22T01:53:27.149Z,7.23
2023-02-22T01:54:27.135Z,7.25
2023-02-22T01:55:27.126Z,7.13
2023-02-22T01:56:27.106Z,7.11
2023-02-22T01:57:27.134Z,7.17
2023-02-22T01:58:27.100Z,7.10
2023-02-22T01:59:27.097Z,7.15
2023-02-22T02:00:27.083Z,7.11
2023-02-22T02:01:27.137Z,7.06
2023-02-22T02:02:27.119Z,7.07
2023-02-22T02:03:27.060Z,7.07
2023-02-22T02:04:27.074Z,7.17
2023-02-22T02:05:27.064Z,7.15
2023-02-22T02:06:27.079Z,7.15
2023-02-22T02:07:27.061Z,7.13
2023-02-22T02:08:27.066Z,7.18
2023-02-22T02:09:27.083Z,7.15
2023-02-22T02:10:27.045Z,7.25
2023-02-22T02:11:27.029Z,7.18
2023-02-22T02:12:27.061Z,7.18
2023-02-22T02:13:27.009Z,7.13
2023-02-22T02:14:27.009Z,7.15
2023-02-22T02:15:26.990Z,7.06
2023-02-22T02:16:27.057Z,7.03
2023-02-22T02:17:26.997Z,7.17
2023-02-22T02:18:26.999Z,7.13
2023-02-22T02:19:26.957Z,7.18
2023-02-22T02:20:26.953Z,7.13
2023-02-22T02:21:26.988Z,7.15
2023-02-22T02:22:26.955Z,6.99
2023-02-22T02:23:26.972Z,6.96
2023-02-22T02:24:26.964Z,6.82
2023-02-22T02:25:26.941Z,6.79
2023-02-22T02:26:26.992Z,6.77
2023-02-22T02:27:26.941Z,6.82
2023-02-22T02:28:26.949Z,6.84
2023-02-22T02:29:26.941Z,6.74
2023-02-22T02:30:26.988Z,6.74
2023-02-22T02:31:26.959Z,6.78
2023-02-22T02:32:26.929Z,6.81
2023-02-22T02:33:26.879Z,6.79
2023-02-22T02:34:26.928Z,6.84
2023-02-22T02:35:26.896Z,6.89
2023-02-22T02:36:26.880Z,6.93
2023-02-22T02:37:26.878Z,6.81
2023-02-22T02:38:26.923Z,6.78
2023-02-22T02:39:26.894Z,6.74
2023-02-22T02:40:26.909Z,6.78
2023-02-22T02:41:26.843Z,6.82
2023-02-22T02:42:26.841Z,6.79
2023-02-22T02:43:26.880Z,6.88
2023-02-22T02:44:26.834Z,6.84
2023-02-22T02:45:26.807Z,6.92
2023-02-22T02:46:26.806Z,6.93
2023-02-22T02:47:26.850Z,6.93
2023-02-22T02:48:26.798Z,7.10
2023-02-22T02:49:26.814Z,7.03
2023-02-22T02:50:26.777Z,7.14
2023-02-22T02:51:26.782Z,7.13
2023-02-22T02:52:26.819Z,7.06
2023-02-22T02:53:26.765Z,7.17
2023-02-22T02:54:26.760Z,7.15
2023-02-22T02:55:26.739Z,7.21
2023-02-22T02:56:26.748Z,7.25
2023-02-22T02:57:26.745Z,7.20
2023-02-22T02:58:26.744Z,7.21
2023-02-22T02:59:26.734Z,7.31
2023-02-22T03:00:26.725Z,7.28
2023-02-22T03:01:26.741Z,7.28
2023-02-22T03:02:26.742Z,7.31
2023-02-22T03:03:26.702Z,7.31
2023-02-22T03:04:26.707Z,7.33
2023-02-22T03:05:26.710Z,7.40
2023-02-22T03:06:26.689Z,7.29
2023-02-22T03:07:26.708Z,7.31
2023-02-22T03:08:26.673Z,7.25
2023-02-22T03:09:26.673Z,7.21
2023-02-22T03:10:26.678Z,7.23
2023-02-22T03:11:26.673Z,7.14
2023-02-22T03:12:26.657Z,7.11
2023-02-22T03:13:26.628Z,7.07
2023-02-22T03:14:26.658Z,7.06
2023-02-22T03:15:26.633Z,7.03
2023-02-22T03:16:26.694Z,7.02
2023-02-22T03:17:26.643Z,7.07
2023-02-22T03:18:26.625Z,6.85
2023-02-22T03:19:26.627Z,6.93
2023-02-22T03:20:26.596Z,6.92
2023-02-22T03:21:26.597Z,6.95
2023-02-22T03:22:26.603Z,6.93
2023-02-22T03:23:26.625Z,7.05
2023-02-22T03:24:26.599Z,6.89
2023-02-22T03:25:26.578Z,6.92
2023-02-22T03:26:26.574Z,6.92
2023-02-22T03:27:26.548Z,6.92
2023-02-22T03:28:26.564Z,6.87
2023-02-22T03:29:26.614Z,6.82
2023-02-22T03:30:26.570Z,6.78
2023-02-22T03:31:26.593Z,6.72
2023-02-22T03:32:26.556Z,6.74
2023-02-22T03:33:26.520Z,6.72
2023-02-22T03:34:26.509Z,6.81
2023-02-22T03:35:26.528Z,6.77
2023-02-22T03:36:26.567Z,6.81
2023-02-22T03:37:26.538Z,6.78
2023-02-22T03:38:26.488Z,6.92
2023-02-22T03:39:26.480Z,6.93
2023-02-22T03:40:26.497Z,6.95
2023-02-22T03:41:26.487Z,6.88
2023-02-22T03:42:26.536Z,6.84
2023-02-22T03:43:26.492Z,6.84
2023-02-22T03:44:26.464Z,6.85
2023-02-22T03:45:26.465Z,6.74
2023-02-22T03:46:26.495Z,6.64
2023-02-22T03:47:26.547Z,6.52
2023-02-22T03:48:26.426Z,6.42
2023-02-22T03:49:26.420Z,6.44
2023-02-22T03:50:26.424Z,6.42
2023-02-22T03:51:26.422Z,6.39
2023-02-22T03:52:26.432Z,6.33
2023-02-22T03:53:26.423Z,6.28
2023-02-22T03:54:26.401Z,6.33
2023-02-22T03:55:26.385Z,6.42
2023-02-22T03:56:26.389Z,6.42
2023-02-22T03:57:26.420Z,6.46
2023-02-22T03:58:26.393Z,6.28
2023-02-22T03:59:26.357Z,6.41
2023-02-22T04:00:26.355Z,6.28
2023-02-22T04:01:26.352Z,6.27
2023-02-22T04:02:26.375Z,6.28
2023-02-22T04:03:26.343Z,6.26
2023-02-22T04:04:26.369Z,6.17
2023-02-22T04:05:26.335Z,6.30
2023-02-22T04:06:26.309Z,6.27
2023-02-22T04:07:26.325Z,6.16
2023-02-22T04:08:26.332Z,6.20
2023-02-22T04:09:26.319Z,6.20
2023-02-22T04:10:26.317Z,6.16
2023-02-22T04:11:26.287Z,6.28
2023-02-22T04:12:26.273Z,6.27
2023-02-22T04:13:26.280Z,6.19
2023-02-22T04:14:28.169Z,6.12
2023-02-22T04:15:26.262Z,6.33
2023-02-22T04:16:26.279Z,6.35
2023-02-22T04:17:26.332Z,6.39
2023-02-22T04:18:26.327Z,6.38
2023-02-22T04:19:26.252Z,6.35
2023-02-22T04:20:26.282Z,6.35
2023-02-22T04:21:26.261Z,6.45
2023-02-22T04:22:26.283Z,6.51
2023-02-22T04:23:26.253Z,6.41
2023-02-22T04:24:26.226Z,6.48
2023-02-22T04:25:26.251Z,6.45
2023-02-22T04:26:26.197Z,6.49
2023-02-22T04:27:26.249Z,6.45
2023-02-22T04:28:26.198Z,6.54
2023-02-22T04:29:26.249Z,6.59
2023-02-22T04:30:26.227Z,6.62
2023-02-22T04:31:26.232Z,6.57
2023-02-22T04:32:26.177Z,6.62
2023-02-22T04:33:26.155Z,6.57
2023-02-22T04:34:26.205Z,6.52
2023-02-22T04:35:26.164Z,6.64
2023-02-22T04:36:26.194Z,6.59
2023-02-22T04:37:26.149Z,6.70
2023-02-22T04:38:26.156Z,6.56
2023-02-22T04:39:26.184Z,6.56
2023-02-22T04:40:26.154Z,6.67
2023-02-22T04:41:26.132Z,6.62
2023-02-22T04:42:26.190Z,6.67
2023-02-22T04:43:26.114Z,6.67
2023-02-22T04:44:26.121Z,6.70
2023-02-22T04:45:26.118Z,6.79
2023-02-22T04:46:26.107Z,6.79
2023-02-22T04:47:26.121Z,6.82
2023-02-22T04:48:26.101Z,6.84
2023-02-22T04:49:26.072Z,6.79
2023-02-22T04:50:26.190Z,6.69
2023-02-22T04:51:26.146Z,6.74
2023-02-22T04:52:26.050Z,6.75
2023-02-22T04:53:26.082Z,6.79
2023-02-22T04:54:26.099Z,6.79
2023-02-22T04:55:26.097Z,6.70
2023-02-22T04:56:26.044Z,6.69
2023-02-22T04:57:26.060Z,6.75
2023-02-22T04:58:26.053Z,6.64
2023-02-22T04:59:26.013Z,6.52
2023-02-22T05:00:26.003Z,6.56
2023-02-22T05:01:25.996Z,6.59
2023-02-22T05:02:26.009Z,6.54
2023-02-22T05:03:26.014Z,6.66
2023-02-22T05:04:26.041Z,6.56
2023-02-22T05:05:26.021Z,6.62
2023-02-22T05:06:25.972Z,6.59
2023-02-22T05:07:25.973Z,6.59
2023-02-22T05:08:25.964Z,6.51
2023-02-22T05:09:25.969Z,6.62
2023-02-22T05:10:25.942Z,6.59
2023-02-22T05:11:25.944Z,6.64
2023-02-22T05:12:25.943Z,6.56
2023-02-22T05:13:25.954Z,6.57
2023-02-22T05:14:25.966Z,6.62
2023-02-22T05:15:25.901Z,6.57
2023-02-22T05:16:25.907Z,6.52
2023-02-22T05:17:25.895Z,6.54
2023-02-22T05:18:25.950Z,6.52
2023-02-22T05:19:25.895Z,6.59
2023-02-22T05:20:25.985Z,6.59
2023-02-22T05:21:25.934Z,6.54
2023-02-22T05:22:25.888Z,6.59
2023-02-22T05:23:25.916Z,6.56
2023-02-22T05:24:25.887Z,6.62
2023-02-22T05:25:25.864Z,6.60
2023-02-22T05:26:26.007Z,6.67
2023-02-22T05:27:25.841Z,6.75
2023-02-22T05:28:25.859Z,6.60
2023-02-22T05:29:25.860Z,6.64
2023-02-22T05:30:25.881Z,6.66
2023-02-22T05:31:25.923Z,6.70
2023-02-22T05:32:32.823Z,6.67
2023-02-22T05:33:25.801Z,6.70
2023-02-22T05:34:25.811Z,6.62
2023-02-22T05:35:25.777Z,6.64
2023-02-22T05:36:25.777Z,6.54
2023-02-22T05:37:25.795Z,6.56
2023-02-22T05:38:25.775Z,6.56
2023-02-22T05:39:25.747Z,6.59
2023-02-22T05:40:25.753Z,6.62
2023-02-22T05:41:25.759Z,6.62
2023-02-22T05:42:25.765Z,6.64
2023-02-22T05:43:25.734Z,6.56
2023-02-22T05:44:25.764Z,6.67
2023-02-22T05:45:25.726Z,6.63
2023-02-22T05:46:25.766Z,6.59
2023-02-22T05:47:25.730Z,6.66
2023-02-22T05:48:25.703Z,6.62
2023-02-22T05:49:25.722Z,6.54
2023-02-22T05:50:25.729Z,6.62
2023-02-22T05:51:25.708Z,6.48
2023-02-22T05:52:25.697Z,6.45
2023-02-22T05:53:25.688Z,6.57
2023-02-22T05:54:25.703Z,6.46
2023-02-22T05:55:25.663Z,6.51
2023-02-22T05:56:25.706Z,6.46
2023-02-22T05:57:25.663Z,6.44
2023-02-22T05:58:25.663Z,6.54
2023-02-22T05:59:25.678Z,6.46
2023-02-22T06:00:25.666Z,6.56
2023-02-22T06:01:25.630Z,6.57
2023-02-22T06:02:25.640Z,6.48
2023-02-22T06:03:25.667Z,6.62
2023-02-22T06:04:25.606Z,6.59
2023-02-22T06:05:25.601Z,6.57
2023-02-22T06:06:25.603Z,6.52
2023-02-22T06:07:25.588Z,6.57
2023-02-22T06:08:25.589Z,6.56
2023-02-22T06:09:25.595Z,6.56
2023-02-22T06:10:25.572Z,6.64
2023-02-22T06:11:25.577Z,6.57
2023-02-22T06:12:25.561Z,6.52
2023-02-22T06:13:25.543Z,6.57
2023-02-22T06:14:25.581Z,6.63
2023-02-22T06:15:25.559Z,6.54
2023-02-22T06:16:25.565Z,6.60
2023-02-22T06:17:25.525Z,6.67
2023-02-22T06:18:25.530Z,6.69
2023-02-22T06:19:25.534Z,6.57
2023-02-22T06:20:25.505Z,6.56
2023-02-22T06:21:25.525Z,6.48
2023-02-22T06:22:25.507Z,6.56
2023-02-22T06:23:25.495Z,6.56
2023-02-22T06:24:25.501Z,6.63
2023-02-22T06:25:25.496Z,6.62
2023-02-22T06:26:25.481Z,6.51
2023-02-22T06:27:25.487Z,6.62
2023-02-22T06:28:25.460Z,6.56
2023-02-22T06:29:25.459Z,6.49
2023-02-22T06:30:25.551Z,6.60
2023-02-22T06:31:25.502Z,6.60
2023-02-22T06:32:25.436Z,6.51
2023-02-22T06:33:25.437Z,6.62
2023-02-22T06:34:25.445Z,6.67
2023-02-22T06:35:25.445Z,6.67
2023-02-22T06:36:25.433Z,6.70
2023-02-22T06:37:25.400Z,6.74
2023-02-22T06:38:25.426Z,6.70
2023-02-22T06:39:25.400Z,6.77
2023-02-22T06:40:25.416Z,6.85
2023-02-22T06:41:25.384Z,6.77
2023-02-22T06:42:25.490Z,6.69
2023-02-22T06:43:25.370Z,6.67
2023-02-22T06:44:25.401Z,6.70
2023-02-22T06:45:25.415Z,6.69
2023-02-22T06:46:25.381Z,6.70
2023-02-22T06:47:25.347Z,6.77
2023-02-22T06:48:25.339Z,6.67
2023-02-22T06:49:25.361Z,6.64
2023-02-22T06:50:25.354Z,6.63
2023-02-22T06:51:25.348Z,6.66
2023-02-22T06:52:25.317Z,6.60
2023-02-22T06:53:25.308Z,6.63
2023-02-22T06:54:25.318Z,6.59
2023-02-22T06:55:25.339Z,6.74
2023-02-22T06:56:25.282Z,6.69
2023-02-22T06:57:25.288Z,6.66
2023-02-22T06:58:25.274Z,6.69
2023-02-22T06:59:25.274Z,6.67
2023-02-22T07:00:25.289Z,6.69
2023-02-22T07:01:25.252Z,6.66
2023-02-22T07:02:25.255Z,6.62
2023-02-22T07:03:25.315Z,6.66
2023-02-22T07:04:25.241Z,6.66
2023-02-22T07:05:25.240Z,6.77
2023-02-22T07:06:25.255Z,6.75
2023-02-22T07:07:25.250Z,6.87
2023-02-22T07:08:25.232Z,6.82
2023-02-22T07:09:25.207Z,6.70
2023-02-22T07:10:25.263Z,6.85
2023-02-22T07:11:25.203Z,6.89
2023-02-22T07:12:25.194Z,6.88
2023-02-22T07:13:25.204Z,6.84
2023-02-22T07:14:25.205Z,6.81
2023-02-22T07:15:25.199Z,6.77
2023-02-22T07:16:25.220Z,6.85
2023-02-22T07:17:25.176Z,6.79
2023-02-22T07:18:25.197Z,6.79
2023-02-22T07:19:25.172Z,6.87
2023-02-22T07:20:25.170Z,6.84
2023-02-22T07:21:25.158Z,6.72
2023-02-22T07:22:25.161Z,6.79
2023-02-22T07:23:25.135Z,6.87
2023-02-22T07:24:25.153Z,6.81
2023-02-22T07:25:25.133Z,6.82
2023-02-22T07:26:25.131Z,6.92
2023-02-22T07:27:25.137Z,6.88
2023-02-22T07:28:25.105Z,6.87
2023-02-22T07:29:25.118Z,6.89
2023-02-22T07:30:25.231Z,6.88
2023-02-22T07:31:25.100Z,7.05
2023-02-22T07:32:25.228Z,6.97
2023-02-22T07:33:25.096Z,6.95
2023-02-22T07:34:25.087Z,6.99
2023-02-22T07:35:25.082Z,6.89
2023-02-22T07:36:25.121Z,6.89
2023-02-22T07:37:25.073Z,6.79
2023-02-22T07:38:25.100Z,6.78
2023-02-22T07:39:25.063Z,6.77
2023-02-22T07:40:25.074Z,6.85
2023-02-22T07:41:25.061Z,6.85
2023-02-22T07:42:25.038Z,6.88
2023-02-22T07:43:25.053Z,6.99
2023-02-22T07:44:25.020Z,7.00
2023-02-22T07:45:25.050Z,6.92
2023-02-22T07:46:25.013Z,6.96
2023-02-22T07:47:25.003Z,6.84
2023-02-22T07:48:24.989Z,6.81
2023-02-22T07:49:25.007Z,6.84
2023-02-22T07:50:24.981Z,6.89
2023-02-22T07:51:24.981Z,6.92
2023-02-22T07:52:24.963Z,6.95
2023-02-22T07:53:25.855Z,6.97
2023-02-22T07:54:24.975Z,6.96
2023-02-22T07:55:24.986Z,6.89
2023-02-22T07:56:24.971Z,6.93
2023-02-22T07:57:24.988Z,7.03
2023-02-22T07:58:24.958Z,7.05
2023-02-22T07:59:24.917Z,7.10
2023-02-22T08:00:24.929Z,7.06
2023-02-22T08:01:24.940Z,7.00
2023-02-22T08:02:24.949Z,7.06
2023-02-22T08:03:24.956Z,7.10
2023-02-22T08:04:24.903Z,6.99
2023-02-22T08:05:24.898Z,6.97
2023-02-22T08:06:24.908Z,7.00
2023-02-22T08:07:24.896Z,7.02
2023-02-22T08:08:24.920Z,7.07
2023-02-22T08:09:24.897Z,6.99
2023-02-22T08:10:24.864Z,7.06
2023-02-22T08:11:24.856Z,7.03
2023-02-22T08:12:24.847Z,6.96
2023-02-22T08:13:24.836Z,7.07
2023-02-22T08:14:24.847Z,6.96
2023-02-22T08:15:24.868Z,7.07
2023-02-22T08:16:24.866Z,7.15
2023-02-22T08:17:24.872Z,7.17
2023-02-22T08:18:24.822Z,7.06
2023-02-22T08:19:24.808Z,7.21
2023-02-22T08:20:24.825Z,7.29
2023-02-22T08:21:24.825Z,7.20
2023-02-22T08:22:24.791Z,7.23
2023-02-22T08:23:24.792Z,7.10
2023-02-22T08:24:24.765Z,7.05
2023-02-22T08:25:24.768Z,7.05
2023-02-22T08:26:24.755Z,7.14
2023-02-22T08:27:24.755Z,7.17
2023-02-22T08:28:24.759Z,7.18
2023-02-22T08:29:24.754Z,7.28
2023-02-22T08:30:24.761Z,7.23
2023-02-22T08:31:24.775Z,7.33
2023-02-22T08:32:24.880Z,7.31
2023-02-22T08:33:24.834Z,7.36
2023-02-22T08:34:24.707Z,7.38
2023-02-22T08:35:24.722Z,7.33
2023-02-22T08:36:24.712Z,7.50
2023-02-22T08:37:24.706Z,7.47
2023-02-22T08:38:24.724Z,7.36
2023-02-22T08:39:24.688Z,7.31
2023-02-22T08:40:24.693Z,7.20
2023-02-22T08:41:24.659Z,7.32
2023-02-22T08:42:24.689Z,7.33
2023-02-22T08:43:24.693Z,7.25
2023-02-22T08:44:24.655Z,7.18
2023-02-22T08:45:24.631Z,7.21
2023-02-22T08:46:24.666Z,7.18
2023-02-22T08:47:24.631Z,7.31
2023-02-22T08:48:24.647Z,7.32
2023-02-22T08:49:24.615Z,7.36
2023-02-22T08:50:24.717Z,7.28
2023-02-22T08:51:26.247Z,7.36
2023-02-22T08:52:24.607Z,7.40
2023-02-22T08:53:24.603Z,7.39
2023-02-22T08:54:24.608Z,7.31
2023-02-22T08:55:24.593Z,7.31
2023-02-22T08:56:24.593Z,7.20
2023-02-22T08:57:24.587Z,7.20
2023-02-22T08:58:24.584Z,7.23
2023-02-22T08:59:24.585Z,7.15
2023-02-22T09:00:24.549Z,7.20
2023-02-22T09:01:32.701Z,7.31
2023-02-22T09:02:24.638Z,7.33
2023-02-22T09:03:24.605Z,7.35
2023-02-22T09:04:24.527Z,7.39
2023-02-22T09:05:24.539Z,7.48
2023-02-22T09:06:24.505Z,7.33
2023-02-22T09:07:24.521Z,7.33
2023-02-22T09:08:24.527Z,7.36
2023-02-22T09:09:24.558Z,7.32
2023-02-22T09:10:24.489Z,7.38
2023-02-22T09:11:24.476Z,7.28
2023-02-22T09:12:24.485Z,7.33
2023-02-22T09:13:24.466Z,7.24
2023-02-22T09:14:24.502Z,7.28
2023-02-22T09:15:24.505Z,7.28
2023-02-22T09:16:24.529Z,7.38
2023-02-22T09:17:24.434Z,7.42
2023-02-22T09:18:26.881Z,7.36
2023-02-22T09:19:24.452Z,7.57
2023-02-22T09:20:24.490Z,7.50
2023-02-22T09:21:24.418Z,7.50
2023-02-22T09:22:24.440Z,7.61
2023-02-22T09:23:24.420Z,7.53
2023-02-22T09:24:24.429Z,7.63
2023-02-22T09:25:24.432Z,7.57
2023-02-22T09:26:24.411Z,7.61
2023-02-22T09:27:24.430Z,7.60
2023-02-22T09:28:24.374Z,7.69
2023-02-22T09:29:24.381Z,7.82
2023-02-22T09:30:24.578Z,7.73
2023-02-22T09:31:24.546Z,7.77
2023-02-22T09:32:24.542Z,7.80
2023-02-22T09:33:24.399Z,7.80
2023-02-22T09:34:24.375Z,7.77
2023-02-22T09:35:24.348Z,7.73
2023-02-22T09:36:26.119Z,7.93
2023-02-22T09:37:24.338Z,7.91
2023-02-22T09:38:24.325Z,7.88
2023-02-22T09:39:24.482Z,7.90
2023-02-22T09:40:24.299Z,8.03
2023-02-22T09:41:24.339Z,7.97
2023-02-22T09:42:24.298Z,7.90
2023-02-22T09:43:24.285Z,7.87
2023-02-22T09:44:24.280Z,8.00
2023-02-22T09:45:24.297Z,7.94
2023-02-22T09:46:24.268Z,7.85
2023-02-22T09:47:24.418Z,7.77
2023-02-22T09:48:24.292Z,7.87
2023-02-22T09:49:24.265Z,7.94
2023-02-22T09:50:24.292Z,7.98
2023-02-22T09:51:24.255Z,8.15
2023-02-22T09:52:24.261Z,8.15
2023-02-22T09:53:26.358Z,8.16
2023-02-22T09:54:24.233Z,8.08
2023-02-22T09:55:24.233Z,8.10
2023-02-22T09:56:24.237Z,8.10
2023-02-22T09:57:24.205Z,8.18
2023-02-22T09:58:24.236Z,8.23
2023-02-22T09:59:24.223Z,8.26
2023-02-22T10:00:24.216Z,8.28
2023-02-22T10:01:24.169Z,8.28
2023-02-22T10:02:24.241Z,8.27
2023-02-22T10:03:24.215Z,8.12
2023-02-22T10:04:24.205Z,8.27
2023-02-22T10:05:24.198Z,8.33
2023-02-22T10:06:24.165Z,8.41
2023-02-22T10:07:24.188Z,8.48
2023-02-22T10:08:24.196Z,8.56
2023-02-22T10:09:24.140Z,8.67
2023-02-22T10:10:24.152Z,8.64
2023-02-22T10:11:24.125Z,8.67
2023-02-22T10:12:24.112Z,8.73
2023-02-22T10:13:24.119Z,8.58
2023-02-22T10:14:24.128Z,8.63
2023-02-22T10:15:24.107Z,8.66
2023-02-22T10:16:24.136Z,8.66
2023-02-22T10:17:24.095Z,8.69
2023-02-22T10:18:24.066Z,8.70
2023-02-22T10:19:24.093Z,8.73
2023-02-22T10:20:24.089Z,8.73
2023-02-22T10:21:24.095Z,8.66
2023-02-22T10:22:24.059Z,8.76
2023-02-22T10:23:24.040Z,8.76
2023-02-22T10:24:24.052Z,8.79
2023-02-22T10:25:24.045Z,8.92
2023-02-22T10:26:24.074Z,8.84
2023-02-22T10:27:24.012Z,8.95
2023-02-22T10:28:24.032Z,8.99
2023-02-22T10:29:24.007Z,9.03
2023-02-22T10:30:25.593Z,9.14
2023-02-22T10:31:24.100Z,9.18
2023-02-22T10:32:24.059Z,9.11
2023-02-22T10:33:23.985Z,9.18
2023-02-22T10:34:23.964Z,9.18
2023-02-22T10:35:23.969Z,9.14
2023-02-22T10:36:23.977Z,9.10
2023-02-22T10:37:24.061Z,9.23
2023-02-22T10:38:23.961Z,9.26
2023-02-22T10:39:24.007Z,9.22
2023-02-22T10:40:23.950Z,9.34
2023-02-22T10:41:23.963Z,9.40
2023-02-22T10:42:23.940Z,9.40
2023-02-22T10:43:23.974Z,9.44
2023-02-22T10:44:23.920Z,9.40
2023-02-22T10:45:23.933Z,9.44
2023-02-22T10:46:23.921Z,9.29
2023-02-22T10:47:23.901Z,9.41
2023-02-22T10:48:23.972Z,9.55
2023-02-22T10:49:23.898Z,9.51
2023-02-22T10:50:23.904Z,9.39
2023-02-22T10:51:23.863Z,9.31
2023-02-22T10:52:23.881Z,9.39
2023-02-22T10:53:23.877Z,9.34
2023-02-22T10:54:23.897Z,9.41
2023-02-22T10:55:23.849Z,9.59
2023-02-22T10:56:23.865Z,9.61
2023-02-22T10:57:23.834Z,9.82
2023-02-22T10:58:23.829Z,9.91
2023-02-22T10:59:25.612Z,9.84
2023-02-22T11:00:23.845Z,9.92
2023-02-22T11:01:23.914Z,9.89
2023-02-22T11:02:23.814Z,9.89
2023-02-22T11:03:23.815Z,9.99
2023-02-22T11:04:23.792Z,10.04
2023-02-22T11:05:23.867Z,10.07
2023-02-22T11:06:23.776Z,9.99
2023-02-22T11:07:23.798Z,10.09
2023-02-22T11:08:23.791Z,10.04
2023-02-22T11:09:23.764Z,10.01
2023-02-22T11:10:23.761Z,10.07
2023-02-22T11:11:23.774Z,10.05
2023-02-22T11:12:23.751Z,10.17
2023-02-22T11:13:23.747Z,10.37
2023-02-22T11:14:23.745Z,10.42
2023-02-22T11:15:23.726Z,10.26
2023-02-22T11:16:23.750Z,10.38
2023-02-22T11:17:23.753Z,10.37
2023-02-22T11:18:23.702Z,10.37
2023-02-22T11:19:23.679Z,10.42
2023-02-22T11:20:23.692Z,10.38
2023-02-22T11:21:23.709Z,10.28
2023-02-22T11:22:23.671Z,10.42
2023-02-22T11:23:23.721Z,10.49
2023-02-22T11:24:23.681Z,10.48
2023-02-22T11:25:23.713Z,10.69
2023-02-22T11:26:23.658Z,10.82
2023-02-22T11:27:23.631Z,10.82
2023-02-22T11:28:23.632Z,10.94
2023-02-22T11:29:23.676Z,11.19
2023-02-22T11:30:23.659Z,11.35
2023-02-22T11:31:23.816Z,11.63
2023-02-22T11:32:23.645Z,11.73
2023-02-22T11:33:31.791Z,11.84
2023-02-22T11:34:23.608Z,12.07
2023-02-22T11:35:23.624Z,12.35
2023-02-22T11:36:23.585Z,12.57
2023-02-22T11:37:23.565Z,12.85
2023-02-22T11:38:23.591Z,12.95
2023-02-22T11:39:23.563Z,13.12
2023-02-22T11:40:23.568Z,13.28
2023-02-22T11:41:23.537Z,13.60
2023-02-22T11:42:23.546Z,13.78
2023-02-22T11:43:23.527Z,13.72
2023-02-22T11:44:23.515Z,13.86
2023-02-22T11:45:23.506Z,13.87
2023-02-22T11:46:23.546Z,14.00
2023-02-22T11:47:23.476Z,14.17
2023-02-22T11:48:23.496Z,13.99
2023-02-22T11:49:23.475Z,14.00
2023-02-22T11:50:23.500Z,13.95
2023-02-22T11:51:23.484Z,14.00
2023-02-22T11:52:25.053Z,13.99
2023-02-22T11:53:23.451Z,14.03
2023-02-22T11:54:23.469Z,13.86
2023-02-22T11:55:36.322Z,13.78
2023-02-22T11:56:36.980Z,13.65
2023-02-22T11:57:24.409Z,13.49
2023-02-22T11:58:23.414Z,13.46
2023-02-22T11:59:23.421Z,13.31
2023-02-22T12:00:23.421Z,13.22
2023-02-22T12:01:23.389Z,13.27
2023-02-22T12:02:23.421Z,13.28
2023-02-22T12:03:23.424Z,13.16
2023-02-22T12:04:23.413Z,13.28
2023-02-22T12:05:23.368Z,13.27
2023-02-22T12:06:23.416Z,13.42
2023-02-22T12:07:23.351Z,13.54
2023-02-22T12:08:23.357Z,13.65
2023-02-22T12:09:23.337Z,13.67
2023-02-22T12:10:23.328Z,13.74
2023-02-22T12:11:23.340Z,13.65
2023-02-22T12:12:23.329Z,13.60
2023-02-22T12:13:23.289Z,13.62
2023-02-22T12:14:23.286Z,13.54
2023-02-22T12:15:23.288Z,13.52
2023-02-22T12:16:23.286Z,13.37
2023-02-22T12:17:23.296Z,13.41
2023-02-22T12:18:23.274Z,13.49
2023-02-22T12:19:23.267Z,13.50
2023-02-22T12:20:23.241Z,13.39
2023-02-22T12:21:23.281Z,13.53
2023-02-22T12:22:23.233Z,13.37
2023-02-22T12:23:23.225Z,13.30
2023-02-22T12:24:23.215Z,13.31
2023-02-22T12:25:23.227Z,13.20
2023-02-22T12:26:23.205Z,13.18
2023-02-22T12:27:23.209Z,13.19
2023-02-22T12:28:25.118Z,13.18
2023-02-22T12:29:23.186Z,13.28
2023-02-22T12:30:23.192Z,13.18
2023-02-22T12:31:23.308Z,13.18
2023-02-22T12:32:23.305Z,13.13
2023-02-22T12:33:23.148Z,13.15
2023-02-22T12:34:23.194Z,13.11
2023-02-22T12:35:23.144Z,13.04
2023-02-22T12:36:23.153Z,13.01
2023-02-22T12:37:23.139Z,13.05
2023-02-22T12:38:23.272Z,13.03
2023-02-22T12:39:23.099Z,12.98
2023-02-22T12:40:23.100Z,13.11
2023-02-22T12:41:23.104Z,13.05
2023-02-22T12:42:23.101Z,13.04
2023-02-22T12:43:23.089Z,13.04
2023-02-22T12:44:23.084Z,13.18
2023-02-22T12:45:23.057Z,13.00
2023-02-22T12:46:23.128Z,12.97
2023-02-22T12:47:23.135Z,13.00
2023-02-22T12:48:23.047Z,13.01
2023-02-22T12:49:23.067Z,12.95
2023-02-22T12:50:23.029Z,13.04
2023-02-22T12:51:23.046Z,13.12
2023-02-22T12:52:23.031Z,13.08
2023-02-22T12:53:23.020Z,13.13
2023-02-22T12:54:23.005Z,13.20
2023-02-22T12:55:23.005Z,13.20
2023-02-22T12:56:23.000Z,13.16
2023-02-22T12:57:22.981Z,13.12
2023-02-22T12:58:23.016Z,13.08
2023-02-22T12:59:22.965Z,13.01
2023-02-22T13:00:22.958Z,12.86
2023-02-22T13:01:22.981Z,12.87
2023-02-22T13:02:22.940Z,12.83
2023-02-22T13:03:22.934Z,12.90
2023-02-22T13:04:22.975Z,12.85
2023-02-22T13:05:23.009Z,12.86
2023-02-22T13:06:22.940Z,12.94
2023-02-22T13:07:22.894Z,12.91
2023-02-22T13:08:22.890Z,12.93
2023-02-22T13:09:22.879Z,12.85
2023-02-22T13:10:22.919Z,12.91
2023-02-22T13:11:22.885Z,12.85
2023-02-22T13:12:22.861Z,13.00
2023-02-22T13:13:22.862Z,12.95
2023-02-22T13:14:22.848Z,13.00